ADDS METAR Data INFO
IDs: Format: Raw Decoded Include TAF

Data at: 0257 UTC 21 Oct 2017

KPZQ 210256Z AUTO 22005KT 10SM CLR 17/10 A3004 RMK AO2 T01700098
KPZQ 210235Z AUTO 21005KT 10SM CLR 17/10 A3003 RMK AO2 T01700098
KPZQ 210215Z AUTO 20006KT 10SM CLR 17/10 A3003 RMK AO2 T01730100
KPZQ 210156Z AUTO 18004KT 10SM CLR 18/10 A3003 RMK AO2 T01760100
KPZQ 210135Z AUTO 17004KT 10SM CLR 18/10 A3003 RMK AO2 T01760099
KPZQ 210115Z AUTO 17004KT 10SM CLR 18/10 A3003 RMK AO2 T01810101
KPZQ 210056Z AUTO 18004KT 10SM CLR 18/10 A3003 RMK AO2 T01800102
KPZQ 210035Z AUTO 19005KT 10SM CLR 19/10 A3003 RMK AO2 T01850102
KPZQ 210015Z AUTO 19005KT 10SM CLR 19/10 A3003 RMK AO2 T01910103
KPZQ 202356Z AUTO 20005KT 10SM CLR 19/10 A3003 RMK AO2 T01910102 10255 20177
KPZQ 202335Z AUTO 19004KT 10SM CLR 20/10 A3003 RMK AO2 T01990097
KPZQ 202315Z AUTO 20004KT 10SM CLR 20/10 A3002 RMK AO2 T02040097
KPZQ 202256Z AUTO 19004KT 10SM CLR 19/11 A3002 RMK AO2 T01890106
KPZQ 202235Z AUTO 00000KT 10SM CLR 19/11 A3001 RMK AO2 T01930108
KPZQ 202215Z AUTO 21003KT 10SM CLR 23/10 A3001 RMK AO2 T02310096
KPZQ 202156Z AUTO 22004KT 10SM CLR 24/10 A3001 RMK AO2 T02380097
KPZQ 202135Z AUTO 22006KT 10SM CLR 25/09 A3002 RMK AO2 T02460094
KPZQ 202115Z AUTO 22008G14KT 10SM CLR 25/09 A3002 RMK AO2 T02500092
KPZQ 202056Z AUTO 24007KT 10SM CLR 25/09 A3002 RMK AO2 T02510091
KPZQ 202035Z AUTO 23011G16KT 10SM CLR 25/09 A3002 RMK AO2 T02510091
KPZQ 202015Z AUTO 23010G20KT 10SM CLR 25/09 A3002 RMK AO2 T02520092
KPZQ 201956Z AUTO 23012G18KT 10SM CLR 25/10 A3002 RMK AO2 T02500095
KPZQ 201935Z AUTO 23012G19KT 10SM CLR 25/10 A3002 RMK AO2 T02530096
KPZQ 201915Z AUTO 24016G21KT 210V270 10SM CLR 25/09 A3003 RMK AO2 T02530093
KPZQ 201856Z AUTO 25011G16KT 10SM CLR 25/10 A3003 RMK AO2 T02530096
KPZQ 201835Z AUTO 25009G20KT 230V290 10SM CLR 25/10 A3004 RMK AO2 T02520097
KPZQ 201815Z AUTO 23012G21KT 10SM CLR 25/10 A3004 RMK AO2 T02450096
KPZQ 201755Z AUTO 22013G18KT 10SM CLR 24/10 A3005 RMK AO2 T02400098 10240 20090
KPZQ 201735Z AUTO 22011G15KT 190V250 10SM CLR 24/10 A3006 RMK AO2 T02400100
KPZQ 201715Z AUTO 22008G16KT 10SM CLR 23/10 A3007 RMK AO2 T02300095
KPZQ 201655Z AUTO 20007G14KT 180V240 10SM CLR 22/09 A3007 RMK AO2 T02210092
KPZQ 201635Z AUTO 22009G15KT 10SM CLR 22/09 A3009 RMK AO2 T02160092
KPZQ 201615Z AUTO 20009KT 10SM CLR 20/08 A3010 RMK AO2 T02020080
KPZQ 201555Z AUTO 20006KT 10SM CLR 19/07 A3010 RMK AO2 T01900072
KPZQ 201535Z AUTO 19007KT 10SM CLR 18/06 A3011 RMK AO2 T01810061
KPZQ 201515Z AUTO 22009KT 10SM CLR 18/05 A3011 RMK AO2 T01750054
KPZQ 201455Z AUTO 22008G16KT 10SM CLR 17/05 A3012 RMK AO2 T01650046
KPZQ 201435Z AUTO 20006KT 10SM CLR 15/04 A3013 RMK AO2 T01510035
KPZQ 201415Z AUTO 20008KT 10SM CLR 14/02 A3013 RMK AO2 T01390024
KPZQ 201355Z AUTO 20010KT 10SM CLR 13/02 A3013 RMK AO2 T01280019
KPZQ 201335Z AUTO 20009KT 10SM CLR 12/02 A3014 RMK AO2 T01200016
KPZQ 201315Z AUTO 20008KT 10SM CLR 11/01 A3014 RMK AO2 T01140013
KPZQ 201255Z AUTO 20009KT 10SM CLR 11/01 A3014 RMK AO2 T01060010
KPZQ 201235Z AUTO 20008KT 10SM CLR 10/01 A3014 RMK AO2 T00960012
KPZQ 201215Z AUTO 20009KT 10SM CLR 09/01 A3014 RMK AO2 T00930011
KPZQ 201155Z AUTO 20009KT 10SM CLR 09/01 A3013 RMK AO2 T00900012 10113 20086
KPZQ 201135Z AUTO 20008KT 10SM CLR 09/01 A3013 RMK AO2 T00900013
KPZQ 201116Z AUTO 20007KT 10SM CLR 09/01 A3014 RMK AO2 T00860010
KPZQ 201055Z AUTO 20006KT 10SM CLR 09/01 A3014 RMK AO2 T00910010
KPZQ 201035Z AUTO 21007KT 10SM CLR 10/01 A3014 RMK AO2 T00970009
KPZQ 201016Z AUTO 21006KT 10SM CLR 10/01 A3014 RMK AO2 T00960007
KPZQ 200955Z AUTO 21007KT 10SM CLR 10/01 A3014 RMK AO2 T00960007
KPZQ 200935Z AUTO 22007KT 10SM CLR 10/01 A3013 RMK AO2 T00970007
KPZQ 200916Z AUTO 22007KT 10SM CLR 10/01 A3013 RMK AO2 T00970006
KPZQ 200855Z AUTO 22007KT 10SM CLR 10/01 A3013 RMK AO2 T00980005
KPZQ 200835Z AUTO 22008KT 10SM CLR 10/00 A3013 RMK AO2 T00970003
KPZQ 200815Z AUTO 22007KT 10SM CLR 10/00 A3013 RMK AO2 T01010001
KPZQ 200755Z AUTO 23007KT 10SM CLR 10/00 A3012 RMK AO2 T01030000
KPZQ 200735Z AUTO 22008KT 10SM CLR 10/00 A3012 RMK AO2 T01030000
KPZQ 200715Z AUTO 22006KT 10SM CLR 10/00 A3012 RMK AO2 T01030000
KPZQ 200655Z AUTO 23006KT 10SM CLR 11/00 A3012 RMK AO2 T01060000
KPZQ 200635Z AUTO 23006KT 10SM CLR 11/00 A3012 RMK AO2 T01080000
KPZQ 200615Z AUTO 23007KT 10SM CLR 11/00 A3012 RMK AO2 T01080000
KPZQ 200555Z AUTO 23007KT 10SM CLR 12/00 A3012 RMK AO2 T01151001 10120 20106
KPZQ 200535Z AUTO 23007KT 10SM CLR 12/00 A3011 RMK AO2 T01171001
KPZQ 200515Z AUTO 25009KT 10SM CLR 12/00 A3011 RMK AO2 T01191001
KPZQ 200455Z AUTO 25009KT 10SM CLR 12/00 A3011 RMK AO2 T01180000
KPZQ 200435Z AUTO 24010KT 10SM CLR 12/00 A3011 RMK AO2 T01150001
KPZQ 200415Z AUTO 24008KT 10SM CLR 12/00 A3011 RMK AO2 T01150001
KPZQ 200355Z AUTO 25009KT 10SM CLR 12/00 A3010 RMK AO2 T01160003 401680102
KPZQ 200335Z AUTO 24009KT 10SM CLR 12/01 A3009 RMK AO2 T01150006
KPZQ 200315Z AUTO 25009KT 10SM CLR 11/01 A3009 RMK AO2 T01120010
KPZQ 200255Z AUTO 25007KT 10SM CLR 11/01 A3009 RMK AO2 T01100014
KPZQ 200235Z AUTO 24010KT 10SM CLR 11/01 A3009 RMK AO2 T01100014
KPZQ 200215Z AUTO 25008KT 10SM CLR 11/01 A3009 RMK AO2 T01100013
KPZQ 200155Z AUTO 24008KT 10SM CLR 11/01 A3008 RMK AO2 T01110011
KPZQ 200135Z AUTO 24008KT 10SM CLR 11/01 A3007 RMK AO2 T01080008
KPZQ 200115Z AUTO 23007KT 10SM CLR 11/00 A3007 RMK AO2 T01070002
KPZQ 200055Z AUTO 23007KT 10SM CLR 11/00 A3007 RMK AO2 T01100000
KPZQ 200035Z AUTO 23005KT 10SM CLR 11/00 A3007 RMK AO2 T01101002
KPZQ 200015Z AUTO 23006KT 10SM CLR 11/00 A3007 RMK AO2 T01100000
KPZQ 192355Z AUTO 24007KT 10SM CLR 12/00 A3007 RMK AO2 T01150000 10168 20113
KPZQ 192335Z AUTO 23006KT 10SM CLR 11/00 A3007 RMK AO2 T01130000
KPZQ 192315Z AUTO 24007KT 10SM CLR 12/00 A3006 RMK AO2 T01211001
KPZQ 192255Z AUTO 25005KT 10SM CLR 13/00 A3006 RMK AO2 T01260000
KPZQ 192235Z AUTO 26008KT 10SM CLR 14/00 A3006 RMK AO2 T01371001
KPZQ 192215Z AUTO 27012G16KT 10SM CLR 14/00 A3004 RMK AO2 T01430001
KPZQ 192155Z AUTO 26007G14KT 10SM CLR 15/01 A3004 RMK AO2 T01480009
KPZQ 192136Z AUTO 26010KT 10SM CLR 15/01 A3003 RMK AO2 T01540011
KPZQ 192115Z AUTO 26009G15KT 10SM CLR 16/01 A3003 RMK AO2 T01610010
KPZQ 192055Z AUTO 27010G17KT 10SM CLR 16/01 A3003 RMK AO2 T01630007
KPZQ 192036Z AUTO 28013G21KT 10SM CLR 16/01 A3003 RMK AO2 T01610005
KPZQ 192015Z AUTO 28010G20KT 10SM CLR 16/00 A3002 RMK AO2 T01610002
KPZQ 191955Z AUTO 27007G16KT 10SM CLR 17/00 A3001 RMK AO2 T01650001
KPZQ 191936Z AUTO 27013G24KT 10SM CLR 16/00 A3000 RMK AO2 T01641003
KPZQ 191915Z AUTO 28012G25KT 10SM CLR 17/00 A3000 RMK AO2 T01651002
KPZQ 191855Z AUTO 28018G24KT 10SM CLR 17/00 A3000 RMK AO2 T01661002
KPZQ 191835Z AUTO 28013G23KT 10SM CLR 16/00 A3000 RMK AO2 T01580000
KPZQ 191800Z AUTO 28014G23KT 10SM CLR 17/00 A2999 RMK AO2 T01670001
KPZQ 191735Z AUTO 28011G24KT 10SM CLR 17/01 A2999 RMK AO2 T01660006
KPZQ 191715Z AUTO 26014G22KT 10SM CLR 16/00 A2999 RMK AO2 T01640000
KPZQ 191655Z AUTO 26013G23KT 10SM CLR 16/00 A2999 RMK AO2 T01611001
KPZQ 191635Z AUTO 27013G22KT 10SM CLR 16/M01 A2998 RMK AO2 T01601009
KPZQ 191615Z AUTO 28013G22KT 10SM CLR 16/M02 A2998 RMK AO2 T01621019
KPZQ 191555Z AUTO 26013G22KT 10SM CLR 16/M02 A2998 RMK AO2 T01561021
KPZQ 191535Z AUTO 27009G18KT 10SM CLR 16/M01 A2997 RMK AO2 T01571011
KPZQ 191515Z AUTO 28009G17KT 10SM CLR 15/M01 A2998 RMK AO2 T01531007